sensor_id;sensor_type;location;lat;lon;timestamp;P1;durP1;ratioP1;P2;durP2;ratioP2
72209;SDS011;60113;48.762;12.302;2023-04-21T00:00:58;42.78;;;21.35;;
72209;SDS011;60113;48.762;12.302;2023-04-21T00:03:24;33.45;;;20.42;;
72209;SDS011;60113;48.762;12.302;2023-04-21T00:05:54;38.15;;;22.35;;
72209;SDS011;60113;48.762;12.302;2023-04-21T00:08:25;35.97;;;21.67;;
72209;SDS011;60113;48.762;12.302;2023-04-21T00:10:51;36.20;;;22.58;;
72209;SDS011;60113;48.762;12.302;2023-04-21T00:13:16;39.13;;;22.38;;
72209;SDS011;60113;48.762;12.302;2023-04-21T00:15:45;42.17;;;22.52;;
72209;SDS011;60113;48.762;12.302;2023-04-21T00:18:10;38.78;;;21.08;;
72209;SDS011;60113;48.762;12.302;2023-04-21T00:20:38;42.75;;;20.48;;
72209;SDS011;60113;48.762;12.302;2023-04-21T00:23:07;37.95;;;21.63;;
72209;SDS011;60113;48.762;12.302;2023-04-21T00:25:39;38.55;;;21.83;;
72209;SDS011;60113;48.762;12.302;2023-04-21T00:28:04;44.72;;;21.48;;
72209;SDS011;60113;48.762;12.302;2023-04-21T00:30:34;47.65;;;24.27;;
72209;SDS011;60113;48.762;12.302;2023-04-21T00:32:59;41.03;;;21.33;;
72209;SDS011;60113;48.762;12.302;2023-04-21T00:35:28;42.35;;;21.45;;
72209;SDS011;60113;48.762;12.302;2023-04-21T00:37:53;41.03;;;22.50;;
72209;SDS011;60113;48.762;12.302;2023-04-21T00:40:19;41.92;;;22.92;;
72209;SDS011;60113;48.762;12.302;2023-04-21T00:42:45;46.65;;;22.52;;
72209;SDS011;60113;48.762;12.302;2023-04-21T00:45:13;43.08;;;20.77;;
72209;SDS011;60113;48.762;12.302;2023-04-21T00:47:39;31.85;;;18.25;;
72209;SDS011;60113;48.762;12.302;2023-04-21T00:50:05;36.13;;;19.25;;
72209;SDS011;60113;48.762;12.302;2023-04-21T00:52:40;37.85;;;19.98;;
72209;SDS011;60113;48.762;12.302;2023-04-21T00:55:08;29.92;;;17.50;;
72209;SDS011;60113;48.762;12.302;2023-04-21T00:57:38;28.55;;;17.92;;
72209;SDS011;60113;48.762;12.302;2023-04-21T01:00:04;32.38;;;19.83;;
72209;SDS011;60113;48.762;12.302;2023-04-21T01:02:35;43.55;;;22.00;;
72209;SDS011;60113;48.762;12.302;2023-04-21T01:05:05;47.60;;;24.88;;
72209;SDS011;60113;48.762;12.302;2023-04-21T01:07:33;28.55;;;17.20;;
72209;SDS011;60113;48.762;12.302;2023-04-21T01:10:03;38.88;;;21.90;;
72209;SDS011;60113;48.762;12.302;2023-04-21T01:12:29;40.50;;;21.60;;
72209;SDS011;60113;48.762;12.302;2023-04-21T01:14:55;47.83;;;25.10;;
72209;SDS011;60113;48.762;12.302;2023-04-21T01:17:22;52.53;;;27.70;;
72209;SDS011;60113;48.762;12.302;2023-04-21T01:19:51;53.25;;;25.95;;
72209;SDS011;60113;48.762;12.302;2023-04-21T01:22:20;54.65;;;26.00;;
72209;SDS011;60113;48.762;12.302;2023-04-21T01:24:46;35.83;;;20.45;;
72209;SDS011;60113;48.762;12.302;2023-04-21T01:27:15;29.20;;;15.20;;
72209;SDS011;60113;48.762;12.302;2023-04-21T01:29:43;27.17;;;17.23;;
72209;SDS011;60113;48.762;12.302;2023-04-21T01:32:18;28.98;;;17.42;;
72209;SDS011;60113;48.762;12.302;2023-04-21T01:34:45;24.77;;;16.88;;
72209;SDS011;60113;48.762;12.302;2023-04-21T01:37:13;25.67;;;15.23;;
72209;SDS011;60113;48.762;12.302;2023-04-21T01:39:42;38.92;;;21.98;;
72209;SDS011;60113;48.762;12.302;2023-04-21T01:42:09;41.13;;;22.10;;
72209;SDS011;60113;48.762;12.302;2023-04-21T01:44:36;29.45;;;17.33;;
72209;SDS011;60113;48.762;12.302;2023-04-21T01:47:02;31.25;;;19.50;;
72209;SDS011;60113;48.762;12.302;2023-04-21T01:49:27;34.15;;;19.98;;
72209;SDS011;60113;48.762;12.302;2023-04-21T01:51:53;41.70;;;22.63;;
72209;SDS011;60113;48.762;12.302;2023-04-21T01:54:19;39.53;;;21.40;;
72209;SDS011;60113;48.762;12.302;2023-04-21T01:56:44;34.78;;;20.83;;
72209;SDS011;60113;48.762;12.302;2023-04-21T01:59:10;42.38;;;21.55;;
72209;SDS011;60113;48.762;12.302;2023-04-21T02:01:36;39.50;;;21.95;;
72209;SDS011;60113;48.762;12.302;2023-04-21T02:04:02;42.55;;;21.75;;
72209;SDS011;60113;48.762;12.302;2023-04-21T02:06:28;41.45;;;22.77;;
72209;SDS011;60113;48.762;12.302;2023-04-21T02:08:57;46.17;;;23.55;;
72209;SDS011;60113;48.762;12.302;2023-04-21T02:11:23;45.83;;;22.23;;
72209;SDS011;60113;48.762;12.302;2023-04-21T02:13:50;41.03;;;22.55;;
72209;SDS011;60113;48.762;12.302;2023-04-21T02:16:17;51.05;;;25.10;;
72209;SDS011;60113;48.762;12.302;2023-04-21T02:18:45;51.10;;;25.17;;
72209;SDS011;60113;48.762;12.302;2023-04-21T02:21:11;57.47;;;24.70;;
72209;SDS011;60113;48.762;12.302;2023-04-21T02:23:37;47.03;;;24.92;;
72209;SDS011;60113;48.762;12.302;2023-04-21T02:26:02;57.22;;;26.27;;
72209;SDS011;60113;48.762;12.302;2023-04-21T02:28:28;58.50;;;25.77;;
72209;SDS011;60113;48.762;12.302;2023-04-21T02:30:55;68.70;;;28.90;;
72209;SDS011;60113;48.762;12.302;2023-04-21T02:33:21;83.10;;;32.20;;
72209;SDS011;60113;48.762;12.302;2023-04-21T02:35:47;74.50;;;32.00;;
72209;SDS011;60113;48.762;12.302;2023-04-21T02:38:12;88.13;;;34.67;;
72209;SDS011;60113;48.762;12.302;2023-04-21T02:40:38;83.15;;;31.67;;
72209;SDS011;60113;48.762;12.302;2023-04-21T02:43:05;62.03;;;25.20;;
72209;SDS011;60113;48.762;12.302;2023-04-21T02:45:31;55.10;;;25.20;;
72209;SDS011;60113;48.762;12.302;2023-04-21T02:47:56;68.50;;;26.45;;
72209;SDS011;60113;48.762;12.302;2023-04-21T02:50:23;62.67;;;25.30;;
72209;SDS011;60113;48.762;12.302;2023-04-21T02:52:49;60.00;;;25.83;;
72209;SDS011;60113;48.762;12.302;2023-04-21T02:55:14;66.07;;;26.75;;
72209;SDS011;60113;48.762;12.302;2023-04-21T02:57:40;61.55;;;25.10;;
72209;SDS011;60113;48.762;12.302;2023-04-21T03:00:07;62.10;;;26.75;;
72209;SDS011;60113;48.762;12.302;2023-04-21T03:02:35;72.00;;;29.88;;
72209;SDS011;60113;48.762;12.302;2023-04-21T03:05:01;74.40;;;31.67;;
72209;SDS011;60113;48.762;12.302;2023-04-21T03:07:26;77.57;;;31.58;;
72209;SDS011;60113;48.762;12.302;2023-04-21T03:09:52;76.73;;;30.77;;
72209;SDS011;60113;48.762;12.302;2023-04-21T03:12:18;92.18;;;31.83;;
72209;SDS011;60113;48.762;12.302;2023-04-21T03:14:43;83.70;;;30.58;;
72209;SDS011;60113;48.762;12.302;2023-04-21T03:17:09;96.35;;;35.80;;
72209;SDS011;60113;48.762;12.302;2023-04-21T03:19:34;106.88;;;36.35;;
72209;SDS011;60113;48.762;12.302;2023-04-21T03:22:00;87.32;;;33.47;;
72209;SDS011;60113;48.762;12.302;2023-04-21T03:24:25;98.22;;;35.25;;
72209;SDS011;60113;48.762;12.302;2023-04-21T03:26:51;97.88;;;33.67;;
72209;SDS011;60113;48.762;12.302;2023-04-21T03:29:17;85.68;;;32.55;;
72209;SDS011;60113;48.762;12.302;2023-04-21T03:31:43;87.55;;;34.58;;
72209;SDS011;60113;48.762;12.302;2023-04-21T03:34:08;104.00;;;33.50;;
72209;SDS011;60113;48.762;12.302;2023-04-21T03:36:34;91.28;;;33.60;;
72209;SDS011;60113;48.762;12.302;2023-04-21T03:39:00;92.22;;;33.47;;
72209;SDS011;60113;48.762;12.302;2023-04-21T03:41:25;100.78;;;34.38;;
72209;SDS011;60113;48.762;12.302;2023-04-21T03:43:50;86.43;;;29.90;;
72209;SDS011;60113;48.762;12.302;2023-04-21T03:46:17;75.55;;;29.30;;
72209;SDS011;60113;48.762;12.302;2023-04-21T03:48:43;69.25;;;27.60;;
72209;SDS011;60113;48.762;12.302;2023-04-21T03:51:10;64.20;;;26.10;;
72209;SDS011;60113;48.762;12.302;2023-04-21T03:53:35;48.83;;;22.95;;
72209;SDS011;60113;48.762;12.302;2023-04-21T03:56:00;55.90;;;23.33;;
72209;SDS011;60113;48.762;12.302;2023-04-21T03:58:27;58.85;;;24.83;;
72209;SDS011;60113;48.762;12.302;2023-04-21T04:00:52;66.45;;;25.92;;
72209;SDS011;60113;48.762;12.302;2023-04-21T04:03:19;83.10;;;34.38;;
72209;SDS011;60113;48.762;12.302;2023-04-21T04:05:44;83.15;;;31.30;;
72209;SDS011;60113;48.762;12.302;2023-04-21T04:08:10;85.00;;;31.20;;
72209;SDS011;60113;48.762;12.302;2023-04-21T04:10:35;82.53;;;32.38;;
72209;SDS011;60113;48.762;12.302;2023-04-21T04:13:01;78.55;;;30.73;;
72209;SDS011;60113;48.762;12.302;2023-04-21T04:15:27;78.63;;;29.10;;
72209;SDS011;60113;48.762;12.302;2023-04-21T04:17:53;78.78;;;29.50;;
72209;SDS011;60113;48.762;12.302;2023-04-21T04:20:19;93.10;;;30.55;;
72209;SDS011;60113;48.762;12.302;2023-04-21T04:22:45;91.30;;;30.40;;
72209;SDS011;60113;48.762;12.302;2023-04-21T04:25:10;97.85;;;31.27;;
72209;SDS011;60113;48.762;12.302;2023-04-21T04:27:37;80.70;;;30.83;;
72209;SDS011;60113;48.762;12.302;2023-04-21T04:30:05;89.82;;;30.65;;
72209;SDS011;60113;48.762;12.302;2023-04-21T04:32:31;90.38;;;30.50;;
72209;SDS011;60113;48.762;12.302;2023-04-21T04:34:57;75.47;;;28.38;;
72209;SDS011;60113;48.762;12.302;2023-04-21T04:37:23;80.53;;;29.90;;
72209;SDS011;60113;48.762;12.302;2023-04-21T04:39:53;116.65;;;39.15;;
72209;SDS011;60113;48.762;12.302;2023-04-21T04:42:18;124.18;;;37.60;;
72209;SDS011;60113;48.762;12.302;2023-04-21T04:44:51;134.38;;;39.08;;
72209;SDS011;60113;48.762;12.302;2023-04-21T04:47:17;141.45;;;40.65;;
72209;SDS011;60113;48.762;12.302;2023-04-21T04:49:43;132.93;;;39.90;;
72209;SDS011;60113;48.762;12.302;2023-04-21T04:52:09;143.88;;;40.83;;
72209;SDS011;60113;48.762;12.302;2023-04-21T04:54:34;147.55;;;42.58;;
72209;SDS011;60113;48.762;12.302;2023-04-21T04:57:00;150.48;;;41.72;;
72209;SDS011;60113;48.762;12.302;2023-04-21T04:59:27;138.73;;;40.78;;
72209;SDS011;60113;48.762;12.302;2023-04-21T05:01:52;130.27;;;39.92;;
72209;SDS011;60113;48.762;12.302;2023-04-21T05:04:18;119.80;;;38.80;;
72209;SDS011;60113;48.762;12.302;2023-04-21T05:06:44;125.93;;;36.13;;
72209;SDS011;60113;48.762;12.302;2023-04-21T05:09:09;112.13;;;38.67;;
72209;SDS011;60113;48.762;12.302;2023-04-21T05:11:35;101.30;;;36.60;;
72209;SDS011;60113;48.762;12.302;2023-04-21T05:14:00;89.65;;;34.70;;
72209;SDS011;60113;48.762;12.302;2023-04-21T05:16:26;80.90;;;32.88;;
72209;SDS011;60113;48.762;12.302;2023-04-21T05:18:52;76.00;;;31.25;;
72209;SDS011;60113;48.762;12.302;2023-04-21T05:21:21;72.93;;;30.60;;
72209;SDS011;60113;48.762;12.302;2023-04-21T05:23:54;93.57;;;38.78;;
72209;SDS011;60113;48.762;12.302;2023-04-21T05:26:20;89.88;;;37.75;;
72209;SDS011;60113;48.762;12.302;2023-04-21T05:28:48;80.65;;;34.13;;
72209;SDS011;60113;48.762;12.302;2023-04-21T05:31:14;86.05;;;34.55;;
72209;SDS011;60113;48.762;12.302;2023-04-21T05:33:41;83.93;;;35.45;;
72209;SDS011;60113;48.762;12.302;2023-04-21T05:36:06;92.82;;;35.53;;
72209;SDS011;60113;48.762;12.302;2023-04-21T05:38:33;101.30;;;35.72;;
72209;SDS011;60113;48.762;12.302;2023-04-21T05:40:59;79.85;;;33.17;;
72209;SDS011;60113;48.762;12.302;2023-04-21T05:43:25;72.82;;;31.52;;
72209;SDS011;60113;48.762;12.302;2023-04-21T05:45:53;71.55;;;31.85;;
72209;SDS011;60113;48.762;12.302;2023-04-21T05:48:18;57.35;;;28.85;;
72209;SDS011;60113;48.762;12.302;2023-04-21T05:50:44;49.28;;;26.17;;
72209;SDS011;60113;48.762;12.302;2023-04-21T05:53:10;47.45;;;26.10;;
72209;SDS011;60113;48.762;12.302;2023-04-21T05:55:37;46.30;;;24.58;;
72209;SDS011;60113;48.762;12.302;2023-04-21T05:58:03;43.28;;;25.65;;
72209;SDS011;60113;48.762;12.302;2023-04-21T06:00:32;39.72;;;23.85;;
72209;SDS011;60113;48.762;12.302;2023-04-21T06:02:58;36.33;;;21.13;;
72209;SDS011;60113;48.762;12.302;2023-04-21T06:05:23;32.45;;;21.27;;
72209;SDS011;60113;48.762;12.302;2023-04-21T06:07:49;30.88;;;17.88;;
72209;SDS011;60113;48.762;12.302;2023-04-21T06:10:15;27.42;;;17.73;;
72209;SDS011;60113;48.762;12.302;2023-04-21T06:12:41;33.10;;;18.25;;
72209;SDS011;60113;48.762;12.302;2023-04-21T06:15:07;27.13;;;17.75;;
72209;SDS011;60113;48.762;12.302;2023-04-21T06:17:33;25.60;;;16.13;;
72209;SDS011;60113;48.762;12.302;2023-04-21T06:19:58;26.45;;;16.05;;
72209;SDS011;60113;48.762;12.302;2023-04-21T06:22:24;24.40;;;16.33;;
72209;SDS011;60113;48.762;12.302;2023-04-21T06:24:50;26.65;;;16.80;;
72209;SDS011;60113;48.762;12.302;2023-04-21T06:27:18;25.30;;;17.10;;
72209;SDS011;60113;48.762;12.302;2023-04-21T06:29:43;30.35;;;15.98;;
72209;SDS011;60113;48.762;12.302;2023-04-21T06:32:10;25.38;;;16.10;;
72209;SDS011;60113;48.762;12.302;2023-04-21T06:34:37;21.52;;;15.48;;
72209;SDS011;60113;48.762;12.302;2023-04-21T06:37:03;26.50;;;15.65;;
72209;SDS011;60113;48.762;12.302;2023-04-21T06:39:28;22.55;;;15.98;;
72209;SDS011;60113;48.762;12.302;2023-04-21T06:41:54;24.90;;;15.40;;
72209;SDS011;60113;48.762;12.302;2023-04-21T06:44:22;22.85;;;16.65;;
72209;SDS011;60113;48.762;12.302;2023-04-21T06:46:47;22.73;;;14.43;;
72209;SDS011;60113;48.762;12.302;2023-04-21T06:49:16;27.10;;;15.38;;
72209;SDS011;60113;48.762;12.302;2023-04-21T06:51:41;23.73;;;15.35;;
72209;SDS011;60113;48.762;12.302;2023-04-21T06:54:07;22.85;;;14.93;;
72209;SDS011;60113;48.762;12.302;2023-04-21T06:56:32;21.73;;;14.48;;
72209;SDS011;60113;48.762;12.302;2023-04-21T06:58:58;21.50;;;14.75;;
72209;SDS011;60113;48.762;12.302;2023-04-21T07:01:24;19.77;;;13.20;;
72209;SDS011;60113;48.762;12.302;2023-04-21T07:03:49;17.75;;;12.43;;
72209;SDS011;60113;48.762;12.302;2023-04-21T07:06:16;13.82;;;11.35;;
72209;SDS011;60113;48.762;12.302;2023-04-21T07:08:42;16.58;;;12.05;;
72209;SDS011;60113;48.762;12.302;2023-04-21T07:11:08;16.60;;;12.30;;
72209;SDS011;60113;48.762;12.302;2023-04-21T07:13:33;14.15;;;11.27;;
72209;SDS011;60113;48.762;12.302;2023-04-21T07:15:59;16.55;;;11.05;;
72209;SDS011;60113;48.762;12.302;2023-04-21T07:18:24;16.90;;;11.00;;
72209;SDS011;60113;48.762;12.302;2023-04-21T07:20:50;15.10;;;11.10;;
72209;SDS011;60113;48.762;12.302;2023-04-21T07:23:16;13.07;;;9.63;;
72209;SDS011;60113;48.762;12.302;2023-04-21T07:25:42;12.63;;;9.40;;
72209;SDS011;60113;48.762;12.302;2023-04-21T07:28:08;10.43;;;8.27;;
72209;SDS011;60113;48.762;12.302;2023-04-21T07:30:35;14.63;;;8.77;;
72209;SDS011;60113;48.762;12.302;2023-04-21T07:33:02;11.32;;;7.95;;
72209;SDS011;60113;48.762;12.302;2023-04-21T07:35:27;13.00;;;7.97;;
72209;SDS011;60113;48.762;12.302;2023-04-21T07:37:53;10.68;;;8.05;;
72209;SDS011;60113;48.762;12.302;2023-04-21T07:40:19;11.80;;;8.05;;
72209;SDS011;60113;48.762;12.302;2023-04-21T07:42:45;10.23;;;8.55;;
72209;SDS011;60113;48.762;12.302;2023-04-21T07:45:10;10.50;;;8.38;;
72209;SDS011;60113;48.762;12.302;2023-04-21T07:47:36;12.23;;;9.00;;
72209;SDS011;60113;48.762;12.302;2023-04-21T07:50:02;12.05;;;8.23;;
72209;SDS011;60113;48.762;12.302;2023-04-21T07:52:28;12.82;;;8.65;;
72209;SDS011;60113;48.762;12.302;2023-04-21T07:54:53;11.45;;;8.50;;
72209;SDS011;60113;48.762;12.302;2023-04-21T07:57:19;13.65;;;7.93;;
72209;SDS011;60113;48.762;12.302;2023-04-21T07:59:44;11.77;;;7.47;;
72209;SDS011;60113;48.762;12.302;2023-04-21T08:02:10;11.23;;;7.60;;
72209;SDS011;60113;48.762;12.302;2023-04-21T08:04:36;11.25;;;7.30;;
72209;SDS011;60113;48.762;12.302;2023-04-21T08:07:01;8.77;;;6.88;;
72209;SDS011;60113;48.762;12.302;2023-04-21T08:09:27;10.80;;;6.82;;
72209;SDS011;60113;48.762;12.302;2023-04-21T08:11:52;9.07;;;6.68;;
72209;SDS011;60113;48.762;12.302;2023-04-21T08:14:19;9.35;;;6.55;;
72209;SDS011;60113;48.762;12.302;2023-04-21T08:16:45;12.35;;;6.85;;
72209;SDS011;60113;48.762;12.302;2023-04-21T08:19:11;13.27;;;6.53;;
72209;SDS011;60113;48.762;12.302;2023-04-21T08:21:36;6.40;;;5.22;;
72209;SDS011;60113;48.762;12.302;2023-04-21T08:24:02;7.45;;;5.38;;
72209;SDS011;60113;48.762;12.302;2023-04-21T08:26:28;6.63;;;5.63;;
72209;SDS011;60113;48.762;12.302;2023-04-21T08:28:54;6.53;;;5.80;;
72209;SDS011;60113;48.762;12.302;2023-04-21T08:31:21;6.35;;;5.45;;
72209;SDS011;60113;48.762;12.302;2023-04-21T08:33:46;7.53;;;5.65;;
72209;SDS011;60113;48.762;12.302;2023-04-21T08:36:12;6.65;;;5.55;;
72209;SDS011;60113;48.762;12.302;2023-04-21T08:38:38;7.75;;;5.97;;
72209;SDS011;60113;48.762;12.302;2023-04-21T08:41:04;8.80;;;6.25;;
72209;SDS011;60113;48.762;12.302;2023-04-21T08:43:30;9.07;;;6.25;;
72209;SDS011;60113;48.762;12.302;2023-04-21T08:45:55;13.27;;;6.55;;
72209;SDS011;60113;48.762;12.302;2023-04-21T08:48:21;9.25;;;6.55;;
72209;SDS011;60113;48.762;12.302;2023-04-21T08:50:48;11.52;;;6.82;;
72209;SDS011;60113;48.762;12.302;2023-04-21T08:53:18;9.07;;;6.57;;
72209;SDS011;60113;48.762;12.302;2023-04-21T08:55:44;9.75;;;6.22;;
72209;SDS011;60113;48.762;12.302;2023-04-21T08:58:15;8.77;;;5.70;;
72209;SDS011;60113;48.762;12.302;2023-04-21T09:00:42;12.82;;;6.07;;
72209;SDS011;60113;48.762;12.302;2023-04-21T09:03:07;8.85;;;5.95;;
72209;SDS011;60113;48.762;12.302;2023-04-21T09:05:34;9.98;;;6.40;;
72209;SDS011;60113;48.762;12.302;2023-04-21T09:08:14;10.88;;;6.32;;
72209;SDS011;60113;48.762;12.302;2023-04-21T09:10:47;12.98;;;6.20;;
72209;SDS011;60113;48.762;12.302;2023-04-21T09:13:14;8.38;;;6.38;;
72209;SDS011;60113;48.762;12.302;2023-04-21T09:15:42;7.78;;;5.95;;
72209;SDS011;60113;48.762;12.302;2023-04-21T09:18:12;9.40;;;5.68;;
72209;SDS011;60113;48.762;12.302;2023-04-21T09:20:49;10.55;;;5.70;;
72209;SDS011;60113;48.762;12.302;2023-04-21T09:23:17;6.97;;;4.93;;
72209;SDS011;60113;48.762;12.302;2023-04-21T09:25:45;7.13;;;4.45;;
72209;SDS011;60113;48.762;12.302;2023-04-21T09:28:11;6.25;;;4.20;;
72209;SDS011;60113;48.762;12.302;2023-04-21T09:30:39;8.43;;;4.25;;
72209;SDS011;60113;48.762;12.302;2023-04-21T09:33:05;6.50;;;4.07;;
72209;SDS011;60113;48.762;12.302;2023-04-21T09:35:34;5.38;;;3.83;;
72209;SDS011;60113;48.762;12.302;2023-04-21T09:38:02;6.03;;;3.92;;
72209;SDS011;60113;48.762;12.302;2023-04-21T09:40:29;5.97;;;3.15;;
72209;SDS011;60113;48.762;12.302;2023-04-21T09:42:55;7.65;;;3.17;;
72209;SDS011;60113;48.762;12.302;2023-04-21T09:45:22;4.18;;;2.75;;
72209;SDS011;60113;48.762;12.302;2023-04-21T09:47:50;3.90;;;2.75;;
72209;SDS011;60113;48.762;12.302;2023-04-21T09:50:20;6.60;;;2.92;;
72209;SDS011;60113;48.762;12.302;2023-04-21T09:52:48;3.55;;;2.42;;
72209;SDS011;60113;48.762;12.302;2023-04-21T09:55:15;4.43;;;3.15;;
72209;SDS011;60113;48.762;12.302;2023-04-21T09:57:44;6.15;;;3.05;;
72209;SDS011;60113;48.762;12.302;2023-04-21T10:00:13;9.57;;;3.10;;
72209;SDS011;60113;48.762;12.302;2023-04-21T10:02:43;3.75;;;2.97;;
72209;SDS011;60113;48.762;12.302;2023-04-21T10:05:12;6.53;;;3.13;;
72209;SDS011;60113;48.762;12.302;2023-04-21T10:07:37;3.15;;;2.65;;
72209;SDS011;60113;48.762;12.302;2023-04-21T10:10:06;3.00;;;2.58;;
72209;SDS011;60113;48.762;12.302;2023-04-21T10:12:36;4.30;;;3.00;;
72209;SDS011;60113;48.762;12.302;2023-04-21T10:15:06;3.97;;;3.00;;
72209;SDS011;60113;48.762;12.302;2023-04-21T10:18:10;3.72;;;2.83;;
72209;SDS011;60113;48.762;12.302;2023-04-21T10:20:49;3.80;;;2.90;;
72209;SDS011;60113;48.762;12.302;2023-04-21T10:28:53;3.22;;;2.70;;
72209;SDS011;60113;48.762;12.302;2023-04-21T10:39:09;3.08;;;2.35;;
72209;SDS011;60113;48.762;12.302;2023-04-21T10:41:38;3.88;;;2.88;;
72209;SDS011;60113;48.762;12.302;2023-04-21T10:44:11;6.97;;;2.50;;
72209;SDS011;60113;48.762;12.302;2023-04-21T10:46:38;3.15;;;2.50;;
72209;SDS011;60113;48.762;12.302;2023-04-21T10:49:21;4.22;;;2.30;;
72209;SDS011;60113;48.762;12.302;2023-04-21T10:57:06;4.20;;;2.35;;
72209;SDS011;60113;48.762;12.302;2023-04-21T10:59:34;3.10;;;2.50;;
72209;SDS011;60113;48.762;12.302;2023-04-21T11:02:07;4.82;;;2.35;;
72209;SDS011;60113;48.762;12.302;2023-04-21T11:04:36;5.10;;;2.70;;
72209;SDS011;60113;48.762;12.302;2023-04-21T11:07:04;5.15;;;2.70;;
72209;SDS011;60113;48.762;12.302;2023-04-21T11:09:35;4.50;;;2.58;;
72209;SDS011;60113;48.762;12.302;2023-04-21T11:12:02;4.50;;;2.42;;
72209;SDS011;60113;48.762;12.302;2023-04-21T11:14:31;4.25;;;2.30;;
72209;SDS011;60113;48.762;12.302;2023-04-21T11:16:57;6.18;;;2.60;;
72209;SDS011;60113;48.762;12.302;2023-04-21T11:19:23;3.28;;;2.45;;
72209;SDS011;60113;48.762;12.302;2023-04-21T11:21:50;3.97;;;2.28;;
72209;SDS011;60113;48.762;12.302;2023-04-21T11:24:19;3.33;;;1.92;;
72209;SDS011;60113;48.762;12.302;2023-04-21T11:26:46;6.20;;;2.40;;
72209;SDS011;60113;48.762;12.302;2023-04-21T11:29:12;4.45;;;2.95;;
72209;SDS011;60113;48.762;12.302;2023-04-21T11:31:39;6.90;;;2.83;;
72209;SDS011;60113;48.762;12.302;2023-04-21T11:34:06;5.38;;;2.00;;
72209;SDS011;60113;48.762;12.302;2023-04-21T11:36:35;3.85;;;2.30;;
72209;SDS011;60113;48.762;12.302;2023-04-21T11:39:06;4.10;;;2.88;;
72209;SDS011;60113;48.762;12.302;2023-04-21T11:41:34;3.60;;;2.40;;
72209;SDS011;60113;48.762;12.302;2023-04-21T11:44:00;3.47;;;2.60;;
72209;SDS011;60113;48.762;12.302;2023-04-21T11:46:27;4.22;;;2.00;;
72209;SDS011;60113;48.762;12.302;2023-04-21T11:49:03;4.10;;;1.95;;
72209;SDS011;60113;48.762;12.302;2023-04-21T11:53:58;3.33;;;2.10;;
72209;SDS011;60113;48.762;12.302;2023-04-21T11:56:25;4.10;;;2.10;;
72209;SDS011;60113;48.762;12.302;2023-04-21T11:58:51;4.70;;;2.05;;
72209;SDS011;60113;48.762;12.302;2023-04-21T12:01:17;4.40;;;1.73;;
72209;SDS011;60113;48.762;12.302;2023-04-21T12:03:50;3.40;;;1.90;;
72209;SDS011;60113;48.762;12.302;2023-04-21T12:06:23;3.30;;;2.10;;
72209;SDS011;60113;48.762;12.302;2023-04-21T12:08:59;3.00;;;1.90;;
72209;SDS011;60113;48.762;12.302;2023-04-21T12:11:26;3.00;;;1.98;;
72209;SDS011;60113;48.762;12.302;2023-04-21T12:13:57;4.15;;;2.00;;
72209;SDS011;60113;48.762;12.302;2023-04-21T12:16:28;2.15;;;1.80;;
72209;SDS011;60113;48.762;12.302;2023-04-21T12:18:54;3.80;;;2.10;;
72209;SDS011;60113;48.762;12.302;2023-04-21T12:21:20;4.22;;;2.00;;
72209;SDS011;60113;48.762;12.302;2023-04-21T12:23:50;3.15;;;2.20;;
72209;SDS011;60113;48.762;12.302;2023-04-21T12:26:16;2.45;;;2.00;;
72209;SDS011;60113;48.762;12.302;2023-04-21T12:28:41;6.70;;;2.33;;
72209;SDS011;60113;48.762;12.302;2023-04-21T12:31:07;3.25;;;2.10;;
72209;SDS011;60113;48.762;12.302;2023-04-21T12:33:32;3.15;;;2.50;;
72209;SDS011;60113;48.762;12.302;2023-04-21T12:35:57;3.25;;;2.30;;
72209;SDS011;60113;48.762;12.302;2023-04-21T12:38:24;3.50;;;2.10;;
72209;SDS011;60113;48.762;12.302;2023-04-21T12:40:50;4.53;;;2.10;;
72209;SDS011;60113;48.762;12.302;2023-04-21T12:43:15;6.15;;;1.80;;
72209;SDS011;60113;48.762;12.302;2023-04-21T12:45:41;3.25;;;1.48;;
72209;SDS011;60113;48.762;12.302;2023-04-21T12:48:06;4.55;;;1.80;;
72209;SDS011;60113;48.762;12.302;2023-04-21T12:50:32;6.65;;;1.85;;
72209;SDS011;60113;48.762;12.302;2023-04-21T12:52:57;2.50;;;1.50;;
72209;SDS011;60113;48.762;12.302;2023-04-21T12:55:23;2.70;;;1.50;;
72209;SDS011;60113;48.762;12.302;2023-04-21T12:57:49;2.55;;;1.48;;
72209;SDS011;60113;48.762;12.302;2023-04-21T13:00:15;3.70;;;1.45;;
72209;SDS011;60113;48.762;12.302;2023-04-21T13:02:42;10.95;;;1.50;;
72209;SDS011;60113;48.762;12.302;2023-04-21T13:05:08;1.40;;;1.23;;
72209;SDS011;60113;48.762;12.302;2023-04-21T13:07:36;3.75;;;1.70;;
72209;SDS011;60113;48.762;12.302;2023-04-21T13:10:02;2.47;;;1.35;;
72209;SDS011;60113;48.762;12.302;2023-04-21T13:12:30;3.47;;;1.40;;
72209;SDS011;60113;48.762;12.302;2023-04-21T13:14:56;2.30;;;1.33;;
72209;SDS011;60113;48.762;12.302;2023-04-21T13:17:21;2.28;;;1.20;;
72209;SDS011;60113;48.762;12.302;2023-04-21T13:19:47;2.03;;;1.20;;
72209;SDS011;60113;48.762;12.302;2023-04-21T13:22:12;2.38;;;1.20;;
72209;SDS011;60113;48.762;12.302;2023-04-21T13:24:38;3.03;;;1.25;;
72209;SDS011;60113;48.762;12.302;2023-04-21T13:27:03;3.05;;;1.30;;
72209;SDS011;60113;48.762;12.302;2023-04-21T13:29:29;1.70;;;1.02;;
72209;SDS011;60113;48.762;12.302;2023-04-21T13:31:58;11.90;;;1.20;;
72209;SDS011;60113;48.762;12.302;2023-04-21T13:34:25;1.40;;;1.10;;
72209;SDS011;60113;48.762;12.302;2023-04-21T13:36:51;2.63;;;1.30;;
72209;SDS011;60113;48.762;12.302;2023-04-21T13:39:17;1.90;;;1.20;;
72209;SDS011;60113;48.762;12.302;2023-04-21T13:41:42;2.60;;;1.20;;
72209;SDS011;60113;48.762;12.302;2023-04-21T13:44:08;1.73;;;1.05;;
72209;SDS011;60113;48.762;12.302;2023-04-21T13:46:33;1.95;;;1.15;;
72209;SDS011;60113;48.762;12.302;2023-04-21T13:48:59;1.80;;;1.15;;
72209;SDS011;60113;48.762;12.302;2023-04-21T13:51:24;1.52;;;1.10;;
72209;SDS011;60113;48.762;12.302;2023-04-21T13:53:50;2.33;;;1.08;;
72209;SDS011;60113;48.762;12.302;2023-04-21T13:56:15;2.60;;;1.00;;
72209;SDS011;60113;48.762;12.302;2023-04-21T13:58:41;1.42;;;1.10;;
72209;SDS011;60113;48.762;12.302;2023-04-21T14:01:07;1.20;;;1.02;;
72209;SDS011;60113;48.762;12.302;2023-04-21T14:03:33;1.42;;;1.10;;
72209;SDS011;60113;48.762;12.302;2023-04-21T14:05:59;1.35;;;0.90;;
72209;SDS011;60113;48.762;12.302;2023-04-21T14:08:24;2.40;;;1.00;;
72209;SDS011;60113;48.762;12.302;2023-04-21T14:10:50;2.28;;;1.17;;
72209;SDS011;60113;48.762;12.302;2023-04-21T14:13:16;1.50;;;1.20;;
72209;SDS011;60113;48.762;12.302;2023-04-21T14:15:42;2.22;;;1.33;;
72209;SDS011;60113;48.762;12.302;2023-04-21T14:18:07;2.45;;;1.25;;
72209;SDS011;60113;48.762;12.302;2023-04-21T14:20:33;2.63;;;1.20;;
72209;SDS011;60113;48.762;12.302;2023-04-21T14:22:58;2.67;;;1.40;;
72209;SDS011;60113;48.762;12.302;2023-04-21T14:25:24;3.20;;;1.60;;
72209;SDS011;60113;48.762;12.302;2023-04-21T14:27:49;1.35;;;1.25;;
72209;SDS011;60113;48.762;12.302;2023-04-21T14:30:17;2.25;;;1.40;;
72209;SDS011;60113;48.762;12.302;2023-04-21T14:33:03;1.38;;;1.27;;
72209;SDS011;60113;48.762;12.302;2023-04-21T14:35:30;3.80;;;1.40;;
72209;SDS011;60113;48.762;12.302;2023-04-21T14:37:59;1.73;;;1.30;;